Time;durP1;ratioP1;P1;durP2;ratioP2;P2;SDS_P1;SDS_P2;PMS_P1;PMS_P2;Temp;Humidity;BMP_temperature;BMP_pressure;BME280_temperature;BME280_humidity;BME280_pressure;Samples;Min_cycle;Max_cycle;Signal;HPM_P1;HPM_P2
2021/07/15 00:02:20;;;;;;;;;11.25;9.75;;;;;18.99;74.44;101408.31;5052151;28;45510;-65
2021/07/15 00:04:45;;;;;;;;;13.50;11.50;;;;;18.98;76.39;101403.13;5053043;28;45403;-64
2021/07/15 00:07:14;;;;;;;;;14.00;11.50;;;;;18.95;77.37;101398.03;5050334;28;45368;-64
2021/07/15 00:09:40;;;;;;;;;12.00;9.75;;;;;18.90;75.64;101395.66;5048565;28;45518;-66
2021/07/15 00:12:08;;;;;;;;;11.25;11.25;;;;;18.81;76.17;101396.94;5050066;28;45407;-64
2021/07/15 00:14:33;;;;;;;;;11.75;11.50;;;;;18.75;76.22;101397.28;5053444;28;48724;-65
2021/07/15 00:16:59;;;;;;;;;10.50;8.50;;;;;18.69;74.85;101394.13;5035423;28;45535;-66
2021/07/15 00:19:31;;;;;;;;;12.50;11.50;;;;;18.72;77.09;101388.69;5049398;28;45309;-65
2021/07/15 00:21:57;;;;;;;;;12.00;12.00;;;;;18.70;76.99;101382.66;5047140;28;45419;-66
2021/07/15 00:24:24;;;;;;;;;13.75;12.75;;;;;18.66;77.47;101387.22;5049617;28;46217;-67
2021/07/15 00:26:49;;;;;;;;;13.25;13.00;;;;;18.62;77.12;101397.94;5051554;28;45840;-68
2021/07/15 00:29:15;;;;;;;;;8.00;8.00;;;;;18.60;76.37;101395.38;5039354;28;45411;-65
2021/07/15 00:31:41;;;;;;;;;13.00;12.00;;;;;18.60;78.19;101402.44;5053657;28;45436;-65
2021/07/15 00:34:06;;;;;;;;;14.50;14.50;;;;;18.63;78.49;101408.44;5060334;28;45638;-65
2021/07/15 00:36:32;;;;;;;;;12.75;11.25;;;;;18.67;77.60;101414.41;5060124;28;45336;-65
2021/07/15 00:38:57;;;;;;;;;13.25;13.00;;;;;18.69;78.24;101407.28;5057463;28;45516;-66
2021/07/15 00:41:22;;;;;;;;;12.75;12.50;;;;;18.71;77.33;101416.81;5042757;28;45515;-65
2021/07/15 00:43:49;;;;;;;;;13.25;12.25;;;;;18.67;77.35;101410.00;5046312;28;46310;-65
2021/07/15 00:46:14;;;;;;;;;12.75;10.00;;;;;18.63;77.98;101408.44;5059882;28;45735;-65
2021/07/15 00:48:40;;;;;;;;;13.50;11.50;;;;;18.63;76.62;101412.88;5059355;28;45316;-67
2021/07/15 00:51:06;;;;;;;;;16.00;13.50;;;;;18.61;77.20;101410.25;5060198;28;45273;-66
2021/07/15 00:53:32;;;;;;;;;12.00;12.00;;;;;18.56;76.77;101407.00;5059000;28;46592;-65
2021/07/15 00:55:58;;;;;;;;;14.25;13.75;;;;;18.55;76.65;101406.16;5059461;28;45964;-66
2021/07/15 00:58:24;;;;;;;;;13.25;12.00;;;;;18.52;76.39;101406.31;5059984;28;45478;-66
2021/07/15 01:00:50;;;;;;;;;13.50;10.75;;;;;18.51;77.02;101409.03;5059790;28;45371;-66
2021/07/15 01:03:18;;;;;;;;;14.25;14.00;;;;;18.51;76.66;101409.03;5059866;28;46514;-66
2021/07/15 01:05:46;;;;;;;;;20.00;14.75;;;;;18.47;76.74;101416.22;5057400;28;45447;-66
2021/07/15 01:08:13;;;;;;;;;16.75;14.50;;;;;18.46;77.70;101414.53;5059411;28;45344;-66
2021/07/15 01:11:10;;;;;;;;;17.00;15.25;;;;;18.50;77.16;101418.69;5057660;28;45309;-66
2021/07/15 01:13:54;;;;;;;;;21.25;17.50;;;;;18.53;77.85;101412.41;5041841;28;45416;-66
2021/07/15 01:16:52;;;;;;;;;14.25;11.75;;;;;18.59;78.81;101406.84;5047904;28;45426;-66
2021/07/15 01:19:17;;;;;;;;;13.75;13.75;;;;;18.54;76.92;101412.34;5048735;28;45387;-66
2021/07/15 01:22:08;;;;;;;;;18.00;15.00;;;;;18.49;78.44;101414.34;5060146;28;45369;-66
2021/07/15 01:25:01;;;;;;;;;17.50;16.00;;;;;18.47;77.20;101418.84;5058264;28;45487;-66
2021/07/15 01:27:41;;;;;;;;;14.00;12.00;;;;;18.44;76.10;101418.16;5058259;28;45292;-66
2021/07/15 01:30:12;;;;;;;;;20.00;17.75;;;;;18.42;76.82;101425.25;5059616;28;45471;-66
2021/07/15 01:32:54;;;;;;;;;15.00;9.50;;;;;18.37;77.95;101417.59;5059047;28;45291;-66
2021/07/15 01:35:26;;;;;;;;;18.50;17.50;;;;;18.32;78.09;101413.47;5045365;28;45365;-66
2021/07/15 01:37:55;;;;;;;;;18.50;17.00;;;;;18.33;77.70;101417.81;5047929;28;45296;-66
2021/07/15 01:40:25;;;;;;;;;18.75;15.75;;;;;18.30;77.31;101410.06;5049996;28;45376;-66
2021/07/15 01:42:56;;;;;;;;;17.50;17.00;;;;;18.33;78.90;101404.66;5059832;28;45443;-66
2021/07/15 01:45:23;;;;;;;;;14.75;14.75;;;;;18.29;77.23;101409.22;5054077;28;45364;-66
2021/07/15 01:47:49;;;;;;;;;19.25;17.75;;;;;18.25;78.18;101412.94;5053191;28;45824;-66
2021/07/15 01:50:15;;;;;;;;;19.75;17.75;;;;;18.27;78.31;101421.59;5060090;28;45363;-66
2021/07/15 01:52:41;;;;;;;;;18.50;15.75;;;;;18.27;78.53;101418.13;5059723;28;45575;-66
2021/07/15 01:55:07;;;;;;;;;19.25;18.00;;;;;18.26;77.55;101412.00;5052339;28;45617;-66
2021/07/15 01:57:34;;;;;;;;;18.00;17.50;;;;;18.28;78.53;101411.94;5047874;28;45379;-66
2021/07/15 02:00:01;;;;;;;;;17.25;14.50;;;;;18.30;79.06;101402.19;5061762;28;45309;-65
2021/07/15 02:02:28;;;;;;;;;20.50;18.25;;;;;18.26;78.17;101406.75;5051645;28;45427;-63
2021/07/15 02:04:56;;;;;;;;;16.00;15.00;;;;;18.22;78.83;101403.41;5062584;28;46475;-64
2021/07/15 02:07:23;;;;;;;;;16.75;16.50;;;;;18.19;78.34;101406.19;5066316;28;45789;-64
2021/07/15 02:09:50;;;;;;;;;18.00;17.00;;;;;18.16;78.71;101413.38;5065760;28;45262;-64
2021/07/15 02:12:17;;;;;;;;;20.50;16.00;;;;;18.13;78.78;101413.53;5062691;28;45473;-64
2021/07/15 02:14:46;;;;;;;;;18.00;16.25;;;;;18.11;77.90;101410.97;5066210;28;46155;-64
2021/07/15 02:17:12;;;;;;;;;17.00;15.50;;;;;18.08;79.16;101410.28;5066006;28;45832;-64
2021/07/15 02:19:38;;;;;;;;;18.25;18.00;;;;;18.06;78.85;101414.75;5066503;28;45328;-64
2021/07/15 02:22:03;;;;;;;;;22.00;18.00;;;;;18.07;79.29;101412.03;5066109;28;45182;-64
2021/07/15 02:24:32;;;;;;;;;24.25;18.25;;;;;18.07;79.47;101401.53;5065715;28;45770;-64
2021/07/15 02:27:01;;;;;;;;;14.25;13.00;;;;;18.03;78.56;101409.66;5066082;28;45781;-63
2021/07/15 02:29:26;;;;;;;;;19.00;18.25;;;;;18.02;78.96;101405.28;5066397;28;45269;-63
2021/07/15 02:31:56;;;;;;;;;19.75;15.50;;;;;18.05;80.19;101408.63;5065927;28;45390;-63
2021/07/15 02:34:31;;;;;;;;;24.00;20.25;;;;;17.96;78.53;101400.31;5065890;28;46139;-64
2021/07/15 02:36:59;;;;;;;;;18.00;14.00;;;;;17.95;79.10;101394.22;5065726;28;45626;-64
2021/07/15 02:39:25;;;;;;;;;22.50;17.75;;;;;17.92;79.34;101392.59;5059945;28;45506;-64
2021/07/15 02:41:50;;;;;;;;;19.00;17.50;;;;;17.93;79.82;101388.19;5063636;28;45590;-64
2021/07/15 02:44:16;;;;;;;;;19.25;16.00;;;;;17.96;79.73;101384.53;5065863;28;45378;-64
2021/07/15 02:46:41;;;;;;;;;18.50;16.50;;;;;17.97;79.26;101384.47;5065514;28;45567;-64
2021/07/15 02:49:07;;;;;;;;;23.50;19.25;;;;;18.01;79.23;101387.78;5065939;28;45249;-64
2021/07/15 02:51:32;;;;;;;;;22.00;18.50;;;;;18.00;79.70;101388.72;5065585;28;45529;-64
2021/07/15 02:54:00;;;;;;;;;25.25;19.50;;;;;18.03;79.64;101385.97;5065345;28;45344;-64
2021/07/15 02:57:09;;;;;;;;;19.75;19.75;;;;;18.05;80.12;101390.22;5065682;28;45384;-64
2021/07/15 02:59:46;;;;;;;;;18.75;18.75;;;;;18.05;79.09;101379.72;5058861;28;45532;-64
2021/07/15 03:02:36;;;;;;;;;21.25;19.50;;;;;18.07;79.52;101379.63;5065429;28;45422;-64
2021/07/15 03:05:09;;;;;;;;;18.00;17.25;;;;;18.08;79.46;101376.94;5052407;28;45750;-63
2021/07/15 03:07:45;;;;;;;;;18.00;16.25;;;;;18.08;79.24;101373.44;5065546;28;45227;-64
2021/07/15 03:10:13;;;;;;;;;27.00;20.50;;;;;18.07;79.80;101377.84;5064996;28;45163;-64
2021/07/15 03:12:39;;;;;;;;;21.75;18.00;;;;;18.05;80.11;101373.59;5058991;28;45515;-66
2021/07/15 03:15:06;;;;;;;;;22.50;18.75;;;;;18.03;79.09;101378.09;5062101;28;46439;-66
2021/07/15 03:17:34;;;;;;;;;23.75;20.25;;;;;18.02;80.12;101387.75;5061696;28;45642;-66
2021/07/15 03:20:13;;;;;;;;;21.00;20.00;;;;;18.03;79.85;101391.22;5062064;28;45466;-66
2021/07/15 03:22:40;;;;;;;;;21.75;18.75;;;;;18.06;79.83;101391.09;5061034;28;45419;-66
2021/07/15 03:25:12;;;;;;;;;17.00;15.00;;;;;18.08;79.90;101397.13;5061255;28;46280;-66
2021/07/15 03:27:43;;;;;;;;;21.75;18.50;;;;;18.09;79.82;101390.94;5062174;28;45193;-66
2021/07/15 03:30:09;;;;;;;;;17.00;14.75;;;;;18.11;80.17;101396.97;5043766;28;45439;-66
2021/07/15 03:32:36;;;;;;;;;22.25;19.25;;;;;18.14;80.13;101399.44;5062092;28;45170;-66
2021/07/15 03:35:04;;;;;;;;;21.00;18.75;;;;;18.18;80.04;101401.00;5050529;28;45659;-66
2021/07/15 03:37:30;;;;;;;;;18.25;14.75;;;;;18.22;79.92;101402.56;5061898;28;45327;-66
2021/07/15 03:39:56;;;;;;;;;23.75;20.00;;;;;18.27;79.32;101399.72;5055249;28;45395;-66
2021/07/15 03:42:22;;;;;;;;;22.25;18.50;;;;;18.22;79.46;101399.94;5061808;28;45351;-66
2021/07/15 03:44:49;;;;;;;;;20.75;19.25;;;;;18.20;79.90;101399.97;5061264;28;45392;-66
2021/07/15 03:47:16;;;;;;;;;26.25;22.25;;;;;18.18;79.47;101393.09;5061556;28;45278;-66
2021/07/15 03:49:43;;;;;;;;;27.75;21.00;;;;;18.15;79.08;101396.72;5061641;28;45273;-63
2021/07/15 03:52:12;;;;;;;;;19.50;19.00;;;;;18.12;79.28;101390.78;5061572;28;45289;-63
2021/07/15 03:54:41;;;;;;;;;23.25;20.00;;;;;18.08;78.84;101382.19;5060771;28;46567;-63
2021/07/15 03:57:10;;;;;;;;;24.25;20.50;;;;;18.07;79.58;101385.75;5061480;28;45627;-63
2021/07/15 03:59:39;;;;;;;;;18.75;16.50;;;;;18.04;78.04;101395.56;5048905;28;45426;-63
2021/07/15 04:02:08;;;;;;;;;24.00;20.50;;;;;17.99;78.66;101398.38;5050432;28;45455;-62
2021/07/15 04:04:34;;;;;;;;;20.00;17.00;;;;;18.03;79.80;101396.50;5056359;28;46261;-63
2021/07/15 04:07:06;;;;;;;;;23.25;20.25;;;;;18.09;79.56;101396.19;5061145;28;45898;-63
2021/07/15 04:09:34;;;;;;;;;20.00;19.00;;;;;18.09;79.66;101401.44;5060960;28;45421;-63
2021/07/15 04:12:01;;;;;;;;;23.00;20.50;;;;;18.11;79.18;101396.97;5059143;28;45450;-63
2021/07/15 04:14:45;;;;;;;;;19.50;15.00;;;;;18.13;79.57;101403.00;5061017;28;45397;-63
2021/07/15 04:17:13;;;;;;;;;19.25;16.00;;;;;18.11;78.40;101400.44;5060992;28;45746;-63
2021/07/15 04:19:39;;;;;;;;;22.25;21.75;;;;;18.11;79.71;101407.50;5059709;28;45414;-63
2021/07/15 04:22:08;;;;;;;;;22.25;19.25;;;;;18.11;78.27;101402.22;5060704;28;45233;-63
2021/07/15 04:24:35;;;;;;;;;19.75;19.25;;;;;18.08;78.43;101403.22;5060635;28;45592;-63
2021/07/15 04:27:04;;;;;;;;;23.75;19.50;;;;;18.09;79.01;101411.97;5060889;28;45774;-63
2021/07/15 04:29:31;;;;;;;;;20.25;20.00;;;;;18.08;79.04;101405.00;5061118;28;45281;-63
2021/07/15 04:32:05;;;;;;;;;23.25;20.00;;;;;18.08;79.29;101411.13;5060778;28;45511;-62
2021/07/15 04:34:34;;;;;;;;;21.00;16.00;;;;;18.06;78.62;101415.59;5060845;28;46326;-62
2021/07/15 04:37:00;;;;;;;;;22.00;21.75;;;;;18.10;78.13;101416.31;5060595;28;45277;-62
2021/07/15 04:39:26;;;;;;;;;22.25;19.25;;;;;18.10;79.23;101417.16;5054456;28;45335;-63
2021/07/15 04:41:54;;;;;;;;;21.25;18.75;;;;;18.11;78.87;101412.75;5058286;28;45490;-63
2021/07/15 04:44:21;;;;;;;;;21.00;15.25;;;;;18.09;78.91;101420.72;5039149;28;46201;-63
2021/07/15 04:46:50;;;;;;;;;23.50;19.50;;;;;18.12;78.80;101417.94;5056280;28;45442;-63
2021/07/15 04:49:16;;;;;;;;;21.50;18.25;;;;;18.13;78.03;101424.03;5060153;28;45415;-63
2021/07/15 04:51:43;;;;;;;;;23.50;19.75;;;;;18.13;78.45;101427.53;5060374;28;45356;-63
2021/07/15 04:54:12;;;;;;;;;21.75;20.00;;;;;18.18;78.80;101422.03;5059996;28;45422;-63
2021/07/15 04:56:38;;;;;;;;;27.00;22.25;;;;;18.20;79.25;101425.44;5060255;28;45204;-63
2021/07/15 04:59:03;;;;;;;;;22.50;19.50;;;;;18.22;78.64;101424.47;5048739;28;45567;-63
2021/07/15 05:01:29;;;;;;;;;21.25;18.25;;;;;18.27;79.01;101421.59;5055101;28;45387;-63
2021/07/15 05:03:55;;;;;;;;;25.25;22.50;;;;;18.30;78.53;101423.22;5050816;28;45423;-69
2021/07/15 05:06:22;;;;;;;;;19.75;18.50;;;;;18.29;77.59;101422.38;5068140;28;45266;-63
2021/07/15 05:08:47;;;;;;;;;22.00;20.00;;;;;18.34;78.05;101427.41;5059878;28;45346;-65
2021/07/15 05:11:13;;;;;;;;;23.75;20.75;;;;;18.36;78.83;101425.56;5058055;28;45423;-64
2021/07/15 05:13:38;;;;;;;;;21.25;17.00;;;;;18.41;77.28;101421.75;5060044;28;46291;-63
2021/07/15 05:16:05;;;;;;;;;26.00;20.75;;;;;18.47;78.51;101418.84;5059932;28;45422;-64
2021/07/15 05:18:31;;;;;;;;;23.00;21.50;;;;;18.51;77.62;101425.66;5060014;28;45252;-65
2021/07/15 05:20:57;;;;;;;;;22.75;17.00;;;;;18.55;78.70;101416.69;5059845;28;45443;-65
2021/07/15 05:23:22;;;;;;;;;23.75;20.50;;;;;18.61;78.66;101415.50;5059520;28;46245;-64
2021/07/15 05:25:50;;;;;;;;;23.25;17.00;;;;;18.65;77.33;101418.91;5059220;28;45280;-64
2021/07/15 05:28:15;;;;;;;;;20.75;17.75;;;;;18.66;78.54;101418.81;5059102;28;45281;-65
2021/07/15 05:30:41;;;;;;;;;16.25;15.25;;;;;18.69;78.85;101425.72;5059694;28;45423;-62
2021/07/15 05:33:06;;;;;;;;;18.25;18.25;;;;;18.75;78.54;101417.50;5059232;28;45483;-64
2021/07/15 05:35:33;;;;;;;;;22.25;19.25;;;;;18.83;78.70;101428.50;5058999;28;45345;-65
2021/07/15 05:37:58;;;;;;;;;25.00;20.00;;;;;18.89;77.96;101429.97;5059760;28;45312;-62
2021/07/15 05:40:24;;;;;;;;;23.00;21.00;;;;;18.91;78.45;101439.50;5050629;28;45166;-63
2021/07/15 05:42:50;;;;;;;;;19.25;18.00;;;;;18.97;76.90;101435.69;5059692;28;45438;-65
2021/07/15 05:45:15;;;;;;;;;21.00;17.25;;;;;19.01;76.43;101445.13;5059472;28;45156;-63
2021/07/15 05:47:40;;;;;;;;;21.50;19.25;;;;;19.03;78.12;101444.16;5059509;28;45293;-63
2021/07/15 05:50:06;;;;;;;;;26.00;20.00;;;;;19.05;77.85;101446.69;5049157;28;45289;-65
2021/07/15 05:52:32;;;;;;;;;14.50;13.00;;;;;19.07;77.58;101436.94;5049911;28;46179;-62
2021/07/15 05:54:58;;;;;;;;;20.50;18.50;;;;;19.08;76.37;101444.75;5051669;28;45212;-68
2021/07/15 05:57:25;;;;;;;;;21.25;19.25;;;;;19.08;77.43;101443.91;5048365;28;45170;-70
2021/07/15 05:59:50;;;;;;;;;16.00;14.00;;;;;19.13;76.86;101447.13;5053180;28;45484;-68
2021/07/15 06:02:17;;;;;;;;;16.75;14.25;;;;;19.20;77.22;101439.75;5048538;28;45646;-63
2021/07/15 06:04:42;;;;;;;;;17.00;17.00;;;;;19.28;77.17;101445.50;5048369;28;45415;-62
2021/07/15 06:07:08;;;;;;;;;17.25;15.75;;;;;19.37;77.40;101448.47;5049726;28;45289;-63
2021/07/15 06:09:34;;;;;;;;;20.00;18.25;;;;;19.47;75.99;101448.00;5046226;28;45353;-62
2021/07/15 06:11:59;;;;;;;;;14.75;14.00;;;;;19.45;76.11;101441.03;5049971;28;45330;-62
2021/07/15 06:14:24;;;;;;;;;17.25;16.25;;;;;19.53;77.17;101442.41;5048294;28;45254;-63
2021/07/15 06:16:50;;;;;;;;;21.25;17.50;;;;;19.58;76.74;101441.25;5047847;28;45229;-62
2021/07/15 06:19:15;;;;;;;;;17.50;14.25;;;;;19.67;77.09;101450.47;5059053;28;45149;-63
2021/07/15 06:21:41;;;;;;;;;20.25;14.25;;;;;19.77;76.57;101445.53;5059405;28;46575;-62
2021/07/15 06:24:06;;;;;;;;;18.75;17.00;;;;;19.90;77.04;101441.28;5058571;28;45375;-62
2021/07/15 06:26:32;;;;;;;;;15.50;14.75;;;;;20.01;76.63;101454.72;5059482;28;45404;-64
2021/07/15 06:28:57;;;;;;;;;13.25;13.25;;;;;20.02;75.22;101445.88;5059116;28;45292;-66
2021/07/15 06:31:25;;;;;;;;;17.25;17.00;;;;;20.05;74.92;101451.00;5041012;28;47064;-61
2021/07/15 06:33:51;;;;;;;;;16.50;13.50;;;;;20.10;75.85;101454.22;5053696;28;45284;-62
2021/07/15 06:36:16;;;;;;;;;10.25;8.25;;;;;20.16;76.41;101456.53;5059143;28;45504;-60
2021/07/15 06:38:41;;;;;;;;;18.75;16.00;;;;;20.19;75.08;101453.69;5057534;28;45367;-61
2021/07/15 06:41:10;;;;;;;;;14.75;14.00;;;;;20.21;74.06;101456.25;5051239;28;46431;-69
2021/07/15 06:43:37;;;;;;;;;18.00;15.75;;;;;20.21;75.08;101461.53;5046022;28;45428;-61
2021/07/15 06:46:03;;;;;;;;;18.00;16.75;;;;;20.24;75.08;101456.97;5059144;28;45245;-62
2021/07/15 06:48:28;;;;;;;;;12.25;10.25;;;;;20.25;75.32;101465.72;5062379;28;45271;-61
2021/07/15 06:50:55;;;;;;;;;23.75;17.50;;;;;20.25;73.62;101466.56;5062196;28;45396;-62
2021/07/15 06:53:21;;;;;;;;;21.00;15.25;;;;;20.21;74.57;101459.75;5062209;28;45331;-62
2021/07/15 06:55:46;;;;;;;;;14.50;12.25;;;;;20.26;75.41;101465.63;5062106;28;45452;-61
2021/07/15 06:58:12;;;;;;;;;17.50;14.25;;;;;20.33;75.65;101460.84;5055987;28;45521;-63
2021/07/15 07:00:37;;;;;;;;;18.25;15.00;;;;;20.36;75.34;101466.81;5056127;28;46503;-62
2021/07/15 07:03:03;;;;;;;;;15.75;15.00;;;;;20.37;73.14;101457.09;5048336;28;45333;-61
2021/07/15 07:05:30;;;;;;;;;16.50;14.00;;;;;20.41;75.11;101463.06;5040119;28;45459;-61
2021/07/15 07:07:55;;;;;;;;;17.50;16.25;;;;;20.48;74.43;101469.72;5060179;28;45188;-61
2021/07/15 07:10:21;;;;;;;;;18.25;16.75;;;;;20.45;71.21;101462.84;5058926;28;46496;-75
2021/07/15 07:12:47;;;;;;;;;15.75;15.00;;;;;20.49;74.81;101467.00;5059483;28;45265;-80
2021/07/15 07:15:18;;;;;;;;;15.25;12.00;;;;;20.59;73.24;101459.38;5043136;28;45254;-67
2021/07/15 07:17:44;;;;;;;;;18.75;16.00;;;;;20.71;74.08;101456.03;5060999;28;45555;-61
2021/07/15 07:20:11;;;;;;;;;15.75;15.00;;;;;20.83;74.89;101465.06;5061631;28;46368;-61
2021/07/15 07:22:38;;;;;;;;;16.75;15.50;;;;;20.89;71.01;101454.97;5061632;28;45616;-62
2021/07/15 07:25:05;;;;;;;;;15.00;14.50;;;;;20.92;72.95;101461.84;5061412;28;45388;-63
2021/07/15 07:27:31;;;;;;;;;15.75;15.50;;;;;21.05;73.53;101464.63;5061863;28;45411;-61
2021/07/15 07:29:57;;;;;;;;;15.00;12.25;;;;;21.24;74.20;101459.97;5039884;28;47950;-61
2021/07/15 07:32:23;;;;;;;;;17.00;14.00;;;;;21.40;72.82;101460.72;5061441;28;45330;-63
2021/07/15 07:34:48;;;;;;;;;19.00;16.75;;;;;21.50;73.42;101456.56;5051612;28;45334;-61
2021/07/15 07:37:13;;;;;;;;;21.75;14.75;;;;;21.66;69.85;101450.34;5061588;28;45708;-62
2021/07/15 07:39:39;;;;;;;;;21.75;15.00;;;;;21.71;70.88;101456.19;5053172;28;46236;-61
2021/07/15 07:42:04;;;;;;;;;17.25;15.75;;;;;21.80;72.10;101453.78;5060948;28;45284;-60
2021/07/15 07:44:30;;;;;;;;;15.00;15.00;;;;;21.89;69.30;101457.69;5050403;28;45443;-63
2021/07/15 07:46:55;;;;;;;;;13.00;9.75;;;;;21.88;70.68;101458.63;5060486;28;45539;-62
2021/07/15 07:49:21;;;;;;;;;13.50;13.50;;;;;21.90;70.46;101458.53;5061282;28;46360;-63
2021/07/15 07:51:47;;;;;;;;;18.75;15.50;;;;;21.94;71.78;101468.81;5061521;28;45220;-66
2021/07/15 07:54:13;;;;;;;;;19.75;16.50;;;;;22.03;71.68;101460.31;5059836;28;45843;-65
2021/07/15 07:56:38;;;;;;;;;14.50;13.00;;;;;22.09;66.00;101470.53;5060366;28;45274;-66
2021/07/15 07:59:04;;;;;;;;;17.00;16.00;;;;;22.15;69.58;101470.13;5060887;28;45499;-66
2021/07/15 08:01:30;;;;;;;;;12.50;12.50;;;;;22.17;67.33;101451.47;5057935;28;45290;-64
2021/07/15 08:03:56;;;;;;;;;14.00;13.50;;;;;22.27;68.54;101460.53;5051887;28;45379;-63
2021/07/15 08:06:22;;;;;;;;;15.50;15.00;;;;;22.39;68.65;101456.22;5059604;28;45347;-71
2021/07/15 08:08:47;;;;;;;;;19.50;13.50;;;;;22.57;68.02;101454.16;5060803;28;46932;-61
2021/07/15 08:11:13;;;;;;;;;14.25;11.00;;;;;22.73;68.61;101452.19;5058980;28;45351;-65
2021/07/15 08:13:38;;;;;;;;;14.25;11.00;;;;;22.76;65.96;101460.78;5061280;28;45407;-62
2021/07/15 08:16:04;;;;;;;;;10.50;10.25;;;;;22.89;67.71;101457.34;5060740;28;45213;-62
2021/07/15 08:18:30;;;;;;;;;10.00;10.00;;;;;22.96;67.98;101461.28;5060864;28;45630;-61
2021/07/15 08:20:55;;;;;;;;;8.00;6.50;;;;;23.04;67.16;101466.94;5060874;28;45333;-62
2021/07/15 08:23:21;;;;;;;;;10.00;10.00;;;;;23.01;64.34;101457.34;5039464;28;45249;-64
2021/07/15 08:25:46;;;;;;;;;13.00;10.25;;;;;22.97;67.64;101460.31;5058459;28;45466;-62
2021/07/15 08:28:12;;;;;;;;;11.25;11.25;;;;;22.90;63.57;101451.94;5060724;28;45248;-61
2021/07/15 08:30:37;;;;;;;;;11.00;11.00;;;;;22.90;66.66;101448.47;5060516;28;45225;-62
2021/07/15 08:33:04;;;;;;;;;9.75;9.75;;;;;22.97;67.46;101453.22;5060971;28;45173;-63
2021/07/15 08:35:31;;;;;;;;;9.50;9.00;;;;;22.98;64.65;101454.91;5060243;28;45411;-62
2021/07/15 08:37:57;;;;;;;;;12.50;11.25;;;;;22.99;66.22;101450.47;5060693;28;46418;-61
2021/07/15 08:40:23;;;;;;;;;15.75;14.00;;;;;23.05;67.52;101458.03;5052959;28;45362;-57
2021/07/15 08:42:49;;;;;;;;;16.50;14.75;;;;;23.25;62.63;101449.53;5055461;28;45476;-59
2021/07/15 08:45:14;;;;;;;;;11.25;10.25;;;;;23.31;63.85;101451.75;5056757;28;45280;-70
2021/07/15 08:47:42;;;;;;;;;11.50;10.00;;;;;23.36;66.25;101452.28;5052233;28;45360;-70
2021/07/15 08:50:10;;;;;;;;;12.75;12.00;;;;;23.47;59.58;101442.75;5059379;28;45626;-66
2021/07/15 08:52:36;;;;;;;;;13.75;11.50;;;;;23.57;60.22;101454.41;5060286;28;45359;-67
2021/07/15 08:57:33;;;;;;;;;13.75;11.00;;;;;23.76;59.98;101441.53;5059914;28;45292;-64
2021/07/15 08:59:59;;;;;;;;;15.00;11.25;;;;;23.76;63.83;101438.03;5060605;28;45634;-67
2021/07/15 09:02:25;;;;;;;;;12.00;9.25;;;;;23.80;62.68;101447.47;5058485;28;45902;-66
2021/07/15 09:04:51;;;;;;;;;12.00;12.00;;;;;23.82;63.53;101467.63;5056698;28;45348;-64
2021/07/15 09:07:18;;;;;;;;;12.00;11.50;;;;;23.80;62.63;101458.09;5060149;28;46237;-66
2021/07/15 09:09:48;;;;;;;;;12.50;10.00;;;;;23.70;57.29;101447.28;5058550;28;45574;-66
2021/07/15 09:12:14;;;;;;;;;12.25;10.50;;;;;23.71;61.73;101475.53;5057824;28;45250;-69
2021/07/15 09:14:54;;;;;;;;;9.00;8.50;;;;;23.74;59.65;101456.72;5060151;28;45690;-61
2021/07/15 09:17:31;;;;;;;;;11.00;11.00;;;;;23.79;60.50;101465.19;5059306;28;46395;-64
2021/07/15 09:19:57;;;;;;;;;11.00;9.50;;;;;23.82;59.60;101464.13;5041764;28;45704;-64
2021/07/15 09:22:23;;;;;;;;;12.25;10.50;;;;;23.85;61.34;101454.16;5059924;28;45174;-62
2021/07/15 09:27:24;;;;;;;;;13.00;10.00;;;;;23.97;57.45;101452.41;5587171;22;75254;-65
2021/07/15 09:30:05;;;;;;;;;13.00;11.75;;;;;24.00;58.95;101454.84;5062173;28;45361;-63
2021/07/15 09:32:30;;;;;;;;;12.50;12.50;;;;;24.06;56.14;101472.16;5055368;28;45475;-64
2021/07/15 09:35:07;;;;;;;;;12.50;11.50;;;;;24.03;57.98;101453.78;5059770;28;45424;-64
2021/07/15 09:37:34;;;;;;;;;9.00;9.00;;;;;24.05;59.17;101466.00;5041251;28;47951;-66
2021/07/15 09:40:00;;;;;;;;;13.75;13.00;;;;;24.09;61.68;101458.66;5051268;28;45590;-67
2021/07/15 09:42:25;;;;;;;;;13.00;11.25;;;;;24.28;60.88;101456.34;5059466;28;45464;-62
2021/07/15 09:44:53;;;;;;;;;14.00;10.50;;;;;24.39;54.05;101461.72;5059239;28;45421;-60
2021/07/15 09:47:46;;;;;;;;;14.50;8.75;;;;;24.58;55.44;101470.03;5049955;28;46145;-67
2021/07/15 09:50:15;;;;;;;;;8.25;7.25;;;;;24.65;58.83;101466.94;5054132;28;45225;-67
2021/07/15 09:52:40;;;;;;;;;12.00;10.50;;;;;24.64;57.73;101468.75;5052047;28;45580;-63
2021/07/15 09:55:23;;;;;;;;;9.75;9.75;;;;;24.79;56.01;101461.41;5056136;28;45473;-64
2021/07/15 09:58:10;;;;;;;;;13.25;10.25;;;;;25.02;58.64;101488.94;5057146;28;46335;-65
2021/07/15 10:00:38;;;;;;;;;14.00;14.00;;;;;25.07;58.09;101471.69;5053249;28;45383;-63
2021/07/15 10:03:05;;;;;;;;;12.25;9.50;;;;;25.04;54.51;101481.72;5057455;27;45567;-64
2021/07/15 10:05:30;;;;;;;;;11.00;10.00;;;;;25.07;58.85;101462.84;5044886;28;45394;-65
2021/07/15 10:08:10;;;;;;;;;13.00;11.50;;;;;25.23;57.22;101468.69;5058419;28;45268;-61
2021/07/15 10:10:38;;;;;;;;;14.25;10.50;;;;;25.27;58.05;101453.34;5050543;28;45428;-63
2021/07/15 10:13:19;;;;;;;;;9.00;9.00;;;;;25.17;58.19;101459.34;5052793;28;45450;-63
2021/07/15 10:15:46;;;;;;;;;11.75;10.75;;;;;25.13;57.12;101467.69;5050697;28;45441;-70
2021/07/15 10:18:11;;;;;;;;;10.00;7.50;;;;;25.08;56.79;101470.72;5051859;28;46135;-69
2021/07/15 10:20:38;;;;;;;;;8.00;8.00;;;;;24.99;53.87;101466.09;5041726;28;45451;-66
2021/07/15 10:23:04;;;;;;;;;11.75;10.50;;;;;24.89;51.53;101473.06;5055359;28;45479;-66
2021/07/15 10:25:29;;;;;;;;;10.50;10.50;;;;;24.89;58.77;101483.69;5043143;28;45486;-72
2021/07/15 10:27:56;;;;;;;;;13.00;10.00;;;;;24.93;56.86;101471.84;5054644;28;45939;-65
2021/07/15 10:30:22;;;;;;;;;14.00;9.25;;;;;24.97;55.84;101472.47;5062200;28;45372;-64
2021/07/15 10:32:48;;;;;;;;;8.25;8.25;;;;;24.98;58.57;101479.47;5062701;28;45359;-65
2021/07/15 10:35:15;;;;;;;;;10.75;9.75;;;;;25.08;57.88;101475.19;5061744;28;45435;-64
2021/07/15 10:37:45;;;;;;;;;8.50;8.00;;;;;25.14;57.25;101483.53;5061931;28;47135;-64
2021/07/15 10:40:12;;;;;;;;;11.50;9.75;;;;;25.21;59.08;101483.91;5051927;28;45544;-63
2021/07/15 10:42:39;;;;;;;;;9.00;9.00;;;;;25.26;53.26;101499.53;5040220;28;45329;-65
2021/07/15 10:45:07;;;;;;;;;12.25;10.00;;;;;25.21;56.40;101491.03;5060426;28;45400;-66
2021/07/15 10:47:34;;;;;;;;;6.75;6.00;;;;;25.28;55.66;101468.34;5057008;28;46340;-66
2021/07/15 10:50:00;;;;;;;;;11.50;9.75;;;;;25.31;57.16;101486.72;5061881;28;45515;-58
2021/07/15 10:52:27;;;;;;;;;9.50;9.50;;;;;25.31;53.37;101481.41;5061816;28;45489;-61
2021/07/15 10:54:55;;;;;;;;;11.50;10.25;;;;;25.33;55.03;101485.63;5061660;28;45554;-65
2021/07/15 10:57:22;;;;;;;;;9.75;9.75;;;;;25.42;54.49;101492.03;5061885;28;46299;-60
2021/07/15 10:59:47;;;;;;;;;8.00;8.00;;;;;25.49;55.50;101471.97;5061833;28;45422;-71
2021/07/15 11:02:24;;;;;;;;;6.00;4.50;;;;;25.55;52.83;101490.13;5073214;28;45381;-70
2021/07/15 11:04:51;;;;;;;;;9.50;8.00;;;;;25.66;54.19;101490.13;5072050;27;45326;-65
2021/07/15 11:07:34;;;;;;;;;10.25;9.00;;;;;25.73;54.80;101493.19;5061964;28;45503;-67
2021/07/15 11:10:19;;;;;;;;;9.00;9.00;;;;;25.74;49.88;101497.53;5062044;28;45363;-65
2021/07/15 11:12:59;;;;;;;;;9.00;9.00;;;;;25.69;53.49;101492.56;5061726;28;45288;-66
2021/07/15 11:15:44;;;;;;;;;11.50;10.25;;;;;25.71;50.99;101479.13;5061618;28;45324;-68
2021/07/15 11:18:09;;;;;;;;;11.00;11.00;;;;;25.88;56.10;101470.66;5061910;28;46272;-66
2021/07/15 11:20:35;;;;;;;;;6.25;6.25;;;;;26.06;53.34;101465.66;5061826;28;45343;-65
2021/07/15 11:23:07;;;;;;;;;8.25;8.00;;;;;26.17;49.75;101473.63;5062254;28;45289;-64